sensor_id;sensor_type;location;lat;lon;timestamp;temperature;humidity
1678;DHT22;6034;46.864;15.216;2023-07-31T04:35:52;18.60;99.90
1678;DHT22;6034;46.864;15.216;2023-07-31T04:38:19;18.80;99.90
1678;DHT22;6034;46.864;15.216;2023-07-31T04:40:55;19.00;99.90
1678;DHT22;6034;46.864;15.216;2023-07-31T04:43:23;19.00;99.90
1678;DHT22;6034;46.864;15.216;2023-07-31T04:45:50;19.20;99.90
1678;DHT22;6034;46.864;15.216;2023-07-31T04:48:17;19.40;99.90
1678;DHT22;6034;46.864;15.216;2023-07-31T04:50:44;19.40;99.90
1678;DHT22;6034;46.864;15.216;2023-07-31T04:53:13;19.50;99.90
1678;DHT22;6034;46.864;15.216;2023-07-31T04:55:41;19.70;99.90
1678;DHT22;6034;46.864;15.216;2023-07-31T04:58:08;19.80;99.90
1678;DHT22;6034;46.864;15.216;2023-07-31T05:00:35;19.40;99.90
1678;DHT22;6034;46.864;15.216;2023-07-31T05:03:07;19.50;99.90
1678;DHT22;6034;46.864;15.216;2023-07-31T05:05:37;19.60;99.90
1678;DHT22;6034;46.864;15.216;2023-07-31T05:08:05;19.30;99.90
1678;DHT22;6034;46.864;15.216;2023-07-31T05:10:35;19.40;99.90
1678;DHT22;6034;46.864;15.216;2023-07-31T05:13:05;19.60;99.90
1678;DHT22;6034;46.864;15.216;2023-07-31T05:15:33;19.80;99.90
1678;DHT22;6034;46.864;15.216;2023-07-31T05:18:01;19.80;99.90
1678;DHT22;6034;46.864;15.216;2023-07-31T05:20:28;19.80;99.90
1678;DHT22;6034;46.864;15.216;2023-07-31T05:22:58;20.10;99.90
1678;DHT22;6034;46.864;15.216;2023-07-31T05:25:26;20.20;99.90
1678;DHT22;6034;46.864;15.216;2023-07-31T05:27:55;20.40;99.90
1678;DHT22;6034;46.864;15.216;2023-07-31T05:30:22;20.40;99.90
1678;DHT22;6034;46.864;15.216;2023-07-31T05:32:50;20.30;99.90
1678;DHT22;6034;46.864;15.216;2023-07-31T05:35:17;20.20;99.90
1678;DHT22;6034;46.864;15.216;2023-07-31T05:37:44;19.90;99.90
1678;DHT22;6034;46.864;15.216;2023-07-31T05:40:12;20.30;99.90
1678;DHT22;6034;46.864;15.216;2023-07-31T05:42:39;19.90;99.90
1678;DHT22;6034;46.864;15.216;2023-07-31T05:45:09;20.10;99.90
1678;DHT22;6034;46.864;15.216;2023-07-31T05:47:36;20.00;99.90
1678;DHT22;6034;46.864;15.216;2023-07-31T05:50:04;19.60;99.90
1678;DHT22;6034;46.864;15.216;2023-07-31T05:52:31;19.10;99.90
1678;DHT22;6034;46.864;15.216;2023-07-31T05:54:58;19.30;99.90
1678;DHT22;6034;46.864;15.216;2023-07-31T05:57:26;19.70;99.90
1678;DHT22;6034;46.864;15.216;2023-07-31T05:59:53;19.90;99.90
1678;DHT22;6034;46.864;15.216;2023-07-31T06:02:23;19.80;99.90
1678;DHT22;6034;46.864;15.216;2023-07-31T06:04:50;19.80;99.90
1678;DHT22;6034;46.864;15.216;2023-07-31T06:07:17;19.90;99.90
1678;DHT22;6034;46.864;15.216;2023-07-31T06:09:45;19.80;99.90
1678;DHT22;6034;46.864;15.216;2023-07-31T06:12:12;20.00;99.90
1678;DHT22;6034;46.864;15.216;2023-07-31T06:14:40;20.30;99.90
1678;DHT22;6034;46.864;15.216;2023-07-31T06:17:07;20.40;99.90
1678;DHT22;6034;46.864;15.216;2023-07-31T06:19:35;20.60;99.90
1678;DHT22;6034;46.864;15.216;2023-07-31T06:22:03;20.70;99.90
1678;DHT22;6034;46.864;15.216;2023-07-31T06:24:30;20.90;99.90
1678;DHT22;6034;46.864;15.216;2023-07-31T06:26:58;21.10;99.90
1678;DHT22;6034;46.864;15.216;2023-07-31T06:29:25;20.80;99.90
1678;DHT22;6034;46.864;15.216;2023-07-31T06:31:52;20.30;99.90
1678;DHT22;6034;46.864;15.216;2023-07-31T06:34:19;20.30;99.90
1678;DHT22;6034;46.864;15.216;2023-07-31T06:36:48;20.40;99.90
1678;DHT22;6034;46.864;15.216;2023-07-31T06:39:15;20.40;99.90
1678;DHT22;6034;46.864;15.216;2023-07-31T06:41:43;20.90;99.90
1678;DHT22;6034;46.864;15.216;2023-07-31T06:44:12;20.80;99.90
1678;DHT22;6034;46.864;15.216;2023-07-31T06:46:40;20.60;99.90
1678;DHT22;6034;46.864;15.216;2023-07-31T06:49:11;20.80;99.90
1678;DHT22;6034;46.864;15.216;2023-07-31T06:51:40;20.90;99.90
1678;DHT22;6034;46.864;15.216;2023-07-31T06:54:09;21.00;99.90
1678;DHT22;6034;46.864;15.216;2023-07-31T06:56:37;21.10;99.90
1678;DHT22;6034;46.864;15.216;2023-07-31T06:59:04;20.70;99.90
1678;DHT22;6034;46.864;15.216;2023-07-31T07:01:31;21.10;99.90
1678;DHT22;6034;46.864;15.216;2023-07-31T07:03:58;21.20;99.90
1678;DHT22;6034;46.864;15.216;2023-07-31T07:06:26;20.50;99.90
1678;DHT22;6034;46.864;15.216;2023-07-31T07:08:53;20.70;99.90
1678;DHT22;6034;46.864;15.216;2023-07-31T07:11:22;20.50;99.90
1678;DHT22;6034;46.864;15.216;2023-07-31T07:13:49;20.70;99.90
1678;DHT22;6034;46.864;15.216;2023-07-31T07:16:17;20.80;99.90
1678;DHT22;6034;46.864;15.216;2023-07-31T07:18:44;20.50;99.90
1678;DHT22;6034;46.864;15.216;2023-07-31T07:21:11;20.60;99.90
1678;DHT22;6034;46.864;15.216;2023-07-31T07:23:41;20.90;99.90
1678;DHT22;6034;46.864;15.216;2023-07-31T07:26:08;21.30;99.90
1678;DHT22;6034;46.864;15.216;2023-07-31T07:28:37;21.70;99.90
1678;DHT22;6034;46.864;15.216;2023-07-31T07:31:04;22.00;99.90
1678;DHT22;6034;46.864;15.216;2023-07-31T07:33:32;22.10;99.90
1678;DHT22;6034;46.864;15.216;2023-07-31T07:36:00;22.30;99.90
1678;DHT22;6034;46.864;15.216;2023-07-31T07:38:27;22.30;99.90
1678;DHT22;6034;46.864;15.216;2023-07-31T07:40:55;22.30;99.90
1678;DHT22;6034;46.864;15.216;2023-07-31T07:43:22;22.10;99.90
1678;DHT22;6034;46.864;15.216;2023-07-31T07:45:51;22.10;99.90
1678;DHT22;6034;46.864;15.216;2023-07-31T07:48:19;21.50;99.90
1678;DHT22;6034;46.864;15.216;2023-07-31T07:50:46;21.90;99.90
1678;DHT22;6034;46.864;15.216;2023-07-31T07:53:13;21.50;99.90
1678;DHT22;6034;46.864;15.216;2023-07-31T07:55:40;21.80;99.90
1678;DHT22;6034;46.864;15.216;2023-07-31T07:58:08;22.20;99.90
1678;DHT22;6034;46.864;15.216;2023-07-31T08:00:35;22.50;99.90
1678;DHT22;6034;46.864;15.216;2023-07-31T08:03:05;22.80;99.90
1678;DHT22;6034;46.864;15.216;2023-07-31T08:05:33;22.90;99.90
1678;DHT22;6034;46.864;15.216;2023-07-31T08:08:00;22.90;99.90
1678;DHT22;6034;46.864;15.216;2023-07-31T08:10:28;23.00;99.90
1678;DHT22;6034;46.864;15.216;2023-07-31T08:12:55;22.70;99.90
1678;DHT22;6034;46.864;15.216;2023-07-31T08:15:22;22.80;99.90
1678;DHT22;6034;46.864;15.216;2023-07-31T08:17:50;22.90;99.90
1678;DHT22;6034;46.864;15.216;2023-07-31T08:20:19;23.20;99.90
1678;DHT22;6034;46.864;15.216;2023-07-31T08:22:46;23.40;99.90
1678;DHT22;6034;46.864;15.216;2023-07-31T08:25:13;23.20;99.90
1678;DHT22;6034;46.864;15.216;2023-07-31T08:27:43;22.80;99.90
1678;DHT22;6034;46.864;15.216;2023-07-31T08:30:12;22.50;99.90
1678;DHT22;6034;46.864;15.216;2023-07-31T08:32:40;22.60;99.90
1678;DHT22;6034;46.864;15.216;2023-07-31T08:35:08;22.70;99.90
1678;DHT22;6034;46.864;15.216;2023-07-31T08:37:39;23.10;99.90
1678;DHT22;6034;46.864;15.216;2023-07-31T08:40:07;23.30;99.90
1678;DHT22;6034;46.864;15.216;2023-07-31T08:42:43;23.30;99.90
1678;DHT22;6034;46.864;15.216;2023-07-31T08:45:14;23.30;99.90
1678;DHT22;6034;46.864;15.216;2023-07-31T08:47:44;23.50;99.90
1678;DHT22;6034;46.864;15.216;2023-07-31T08:50:13;23.70;99.90
1678;DHT22;6034;46.864;15.216;2023-07-31T08:52:42;23.90;99.90
1678;DHT22;6034;46.864;15.216;2023-07-31T08:55:09;24.00;99.90
1678;DHT22;6034;46.864;15.216;2023-07-31T08:57:38;24.00;99.90
1678;DHT22;6034;46.864;15.216;2023-07-31T09:00:10;24.20;99.90
1678;DHT22;6034;46.864;15.216;2023-07-31T09:02:41;24.30;99.90
1678;DHT22;6034;46.864;15.216;2023-07-31T09:05:12;24.40;99.90
1678;DHT22;6034;46.864;15.216;2023-07-31T09:07:42;24.30;99.90
1678;DHT22;6034;46.864;15.216;2023-07-31T09:10:12;23.10;99.90
1678;DHT22;6034;46.864;15.216;2023-07-31T09:12:40;23.00;99.90
1678;DHT22;6034;46.864;15.216;2023-07-31T09:15:19;23.50;99.90
1678;DHT22;6034;46.864;15.216;2023-07-31T09:17:47;23.70;99.90
1678;DHT22;6034;46.864;15.216;2023-07-31T09:20:15;23.20;99.90
1678;DHT22;6034;46.864;15.216;2023-07-31T09:22:45;23.40;99.90
1678;DHT22;6034;46.864;15.216;2023-07-31T09:25:16;23.60;99.90
1678;DHT22;6034;46.864;15.216;2023-07-31T09:27:48;24.00;99.90
1678;DHT22;6034;46.864;15.216;2023-07-31T09:30:16;24.10;99.90
1678;DHT22;6034;46.864;15.216;2023-07-31T09:32:44;23.40;99.90
1678;DHT22;6034;46.864;15.216;2023-07-31T09:35:20;23.60;99.90
1678;DHT22;6034;46.864;15.216;2023-07-31T09:37:59;23.90;99.90
1678;DHT22;6034;46.864;15.216;2023-07-31T09:40:30;24.10;99.90
1678;DHT22;6034;46.864;15.216;2023-07-31T09:43:00;24.40;99.90
1678;DHT22;6034;46.864;15.216;2023-07-31T09:45:27;24.80;99.90
1678;DHT22;6034;46.864;15.216;2023-07-31T09:47:55;24.70;99.90
1678;DHT22;6034;46.864;15.216;2023-07-31T09:50:24;24.90;99.90
1678;DHT22;6034;46.864;15.216;2023-07-31T09:52:53;25.10;99.90
1678;DHT22;6034;46.864;15.216;2023-07-31T09:55:20;25.20;99.90
1678;DHT22;6034;46.864;15.216;2023-07-31T09:57:48;25.10;99.90
1678;DHT22;6034;46.864;15.216;2023-07-31T10:00:18;25.20;99.90
1678;DHT22;6034;46.864;15.216;2023-07-31T10:02:48;25.30;99.90
1678;DHT22;6034;46.864;15.216;2023-07-31T10:05:19;25.20;99.90
1678;DHT22;6034;46.864;15.216;2023-07-31T10:07:54;24.80;99.90
1678;DHT22;6034;46.864;15.216;2023-07-31T10:10:22;24.90;99.90
1678;DHT22;6034;46.864;15.216;2023-07-31T10:12:49;25.30;99.90
1678;DHT22;6034;46.864;15.216;2023-07-31T10:15:17;25.10;99.90
1678;DHT22;6034;46.864;15.216;2023-07-31T10:17:47;25.00;99.90
1678;DHT22;6034;46.864;15.216;2023-07-31T10:20:15;24.90;99.90
1678;DHT22;6034;46.864;15.216;2023-07-31T10:22:44;24.90;99.90
1678;DHT22;6034;46.864;15.216;2023-07-31T10:25:15;25.20;99.90
1678;DHT22;6034;46.864;15.216;2023-07-31T10:27:42;24.70;99.90
1678;DHT22;6034;46.864;15.216;2023-07-31T10:30:13;25.50;99.90
1678;DHT22;6034;46.864;15.216;2023-07-31T10:32:43;25.50;99.90
1678;DHT22;6034;46.864;15.216;2023-07-31T10:35:11;25.40;99.90
1678;DHT22;6034;46.864;15.216;2023-07-31T10:40:12;26.10;99.90
1678;DHT22;6034;46.864;15.216;2023-07-31T10:42:47;26.00;99.90
1678;DHT22;6034;46.864;15.216;2023-07-31T10:45:24;25.30;99.90
1678;DHT22;6034;46.864;15.216;2023-07-31T10:47:59;25.50;99.90
1678;DHT22;6034;46.864;15.216;2023-07-31T10:50:28;25.00;99.90
1678;DHT22;6034;46.864;15.216;2023-07-31T10:52:58;25.00;99.90
1678;DHT22;6034;46.864;15.216;2023-07-31T10:55:31;25.10;99.90
1678;DHT22;6034;46.864;15.216;2023-07-31T10:58:06;25.00;99.90
1678;DHT22;6034;46.864;15.216;2023-07-31T11:00:36;24.80;99.90
1678;DHT22;6034;46.864;15.216;2023-07-31T11:03:05;25.20;99.90
1678;DHT22;6034;46.864;15.216;2023-07-31T11:06:00;25.70;99.90
1678;DHT22;6034;46.864;15.216;2023-07-31T11:08:32;25.80;99.90
1678;DHT22;6034;46.864;15.216;2023-07-31T11:11:07;25.50;99.90
1678;DHT22;6034;46.864;15.216;2023-07-31T11:13:41;25.50;99.90
1678;DHT22;6034;46.864;15.216;2023-07-31T11:16:09;25.70;99.90
1678;DHT22;6034;46.864;15.216;2023-07-31T11:18:39;25.70;99.90
1678;DHT22;6034;46.864;15.216;2023-07-31T11:21:06;25.90;99.90
1678;DHT22;6034;46.864;15.216;2023-07-31T11:23:33;26.20;99.90
1678;DHT22;6034;46.864;15.216;2023-07-31T11:26:00;26.50;99.90
1678;DHT22;6034;46.864;15.216;2023-07-31T11:28:32;26.70;99.90
1678;DHT22;6034;46.864;15.216;2023-07-31T11:31:02;26.50;99.90
1678;DHT22;6034;46.864;15.216;2023-07-31T11:33:30;26.20;99.90
1678;DHT22;6034;46.864;15.216;2023-07-31T11:35:57;26.20;99.90
1678;DHT22;6034;46.864;15.216;2023-07-31T11:38:26;26.40;99.90
1678;DHT22;6034;46.864;15.216;2023-07-31T11:40:54;26.40;99.90
1678;DHT22;6034;46.864;15.216;2023-07-31T11:43:22;26.00;99.90
1678;DHT22;6034;46.864;15.216;2023-07-31T11:45:50;26.00;99.90
1678;DHT22;6034;46.864;15.216;2023-07-31T11:48:24;26.10;99.90
1678;DHT22;6034;46.864;15.216;2023-07-31T11:50:53;26.00;99.90
1678;DHT22;6034;46.864;15.216;2023-07-31T11:53:25;25.30;99.90
1678;DHT22;6034;46.864;15.216;2023-07-31T11:55:54;24.80;99.90
1678;DHT22;6034;46.864;15.216;2023-07-31T11:58:22;24.80;99.90
1678;DHT22;6034;46.864;15.216;2023-07-31T12:00:50;25.10;99.90
1678;DHT22;6034;46.864;15.216;2023-07-31T12:03:18;25.30;99.90
1678;DHT22;6034;46.864;15.216;2023-07-31T12:05:48;25.10;99.90
1678;DHT22;6034;46.864;15.216;2023-07-31T12:08:15;25.20;99.90
1678;DHT22;6034;46.864;15.216;2023-07-31T12:10:43;25.60;99.90
1678;DHT22;6034;46.864;15.216;2023-07-31T12:13:20;25.90;99.90
1678;DHT22;6034;46.864;15.216;2023-07-31T12:15:48;26.00;99.90
1678;DHT22;6034;46.864;15.216;2023-07-31T12:18:19;25.80;99.90
1678;DHT22;6034;46.864;15.216;2023-07-31T12:20:53;25.90;99.90
1678;DHT22;6034;46.864;15.216;2023-07-31T12:23:22;25.50;99.90
1678;DHT22;6034;46.864;15.216;2023-07-31T12:26:00;25.40;99.90
1678;DHT22;6034;46.864;15.216;2023-07-31T12:28:28;25.80;99.90
1678;DHT22;6034;46.864;15.216;2023-07-31T12:30:57;25.60;99.90
1678;DHT22;6034;46.864;15.216;2023-07-31T12:33:31;25.90;99.90
1678;DHT22;6034;46.864;15.216;2023-07-31T12:36:00;26.00;99.90
1678;DHT22;6034;46.864;15.216;2023-07-31T12:38:28;26.10;99.90
1678;DHT22;6034;46.864;15.216;2023-07-31T12:40:56;26.00;99.90
1678;DHT22;6034;46.864;15.216;2023-07-31T12:43:23;26.30;99.90
1678;DHT22;6034;46.864;15.216;2023-07-31T12:45:50;24.80;99.90
1678;DHT22;6034;46.864;15.216;2023-07-31T12:48:18;25.30;99.90
1678;DHT22;6034;46.864;15.216;2023-07-31T12:50:45;25.40;99.90
1678;DHT22;6034;46.864;15.216;2023-07-31T12:53:15;25.60;99.90
1678;DHT22;6034;46.864;15.216;2023-07-31T12:55:42;25.10;99.90
1678;DHT22;6034;46.864;15.216;2023-07-31T12:58:10;25.60;99.90
1678;DHT22;6034;46.864;15.216;2023-07-31T13:00:37;25.80;99.90
1678;DHT22;6034;46.864;15.216;2023-07-31T13:03:05;25.70;99.90
1678;DHT22;6034;46.864;15.216;2023-07-31T13:05:32;25.20;99.90
1678;DHT22;6034;46.864;15.216;2023-07-31T13:07:59;24.90;99.90
1678;DHT22;6034;46.864;15.216;2023-07-31T13:10:28;25.00;99.90
1678;DHT22;6034;46.864;15.216;2023-07-31T13:12:55;25.20;99.90
1678;DHT22;6034;46.864;15.216;2023-07-31T13:15:23;25.10;99.90
1678;DHT22;6034;46.864;15.216;2023-07-31T13:17:50;25.00;99.90
1678;DHT22;6034;46.864;15.216;2023-07-31T13:20:17;24.50;99.90
1678;DHT22;6034;46.864;15.216;2023-07-31T13:22:45;24.80;99.90
1678;DHT22;6034;46.864;15.216;2023-07-31T13:25:12;24.50;99.90
1678;DHT22;6034;46.864;15.216;2023-07-31T13:27:40;24.80;99.90
1678;DHT22;6034;46.864;15.216;2023-07-31T13:30:08;24.80;99.90
1678;DHT22;6034;46.864;15.216;2023-07-31T13:32:36;24.90;99.90
1678;DHT22;6034;46.864;15.216;2023-07-31T13:35:05;25.40;99.90
1678;DHT22;6034;46.864;15.216;2023-07-31T13:37:32;25.30;99.90
1678;DHT22;6034;46.864;15.216;2023-07-31T13:39:59;25.20;99.90
1678;DHT22;6034;46.864;15.216;2023-07-31T13:42:26;25.30;99.90
1678;DHT22;6034;46.864;15.216;2023-07-31T13:44:56;25.10;99.90
1678;DHT22;6034;46.864;15.216;2023-07-31T13:47:23;25.10;99.90
1678;DHT22;6034;46.864;15.216;2023-07-31T13:49:51;25.00;99.90
1678;DHT22;6034;46.864;15.216;2023-07-31T13:52:18;24.70;99.90
1678;DHT22;6034;46.864;15.216;2023-07-31T13:54:46;24.80;99.90
1678;DHT22;6034;46.864;15.216;2023-07-31T13:57:14;25.10;99.90
1678;DHT22;6034;46.864;15.216;2023-07-31T13:59:41;24.80;99.90
1678;DHT22;6034;46.864;15.216;2023-07-31T14:02:10;25.00;99.90
1678;DHT22;6034;46.864;15.216;2023-07-31T14:04:37;24.70;99.90
1678;DHT22;6034;46.864;15.216;2023-07-31T14:07:09;24.70;99.90
1678;DHT22;6034;46.864;15.216;2023-07-31T14:09:44;24.50;99.90
1678;DHT22;6034;46.864;15.216;2023-07-31T14:12:13;24.80;99.90
1678;DHT22;6034;46.864;15.216;2023-07-31T14:14:41;24.80;99.90
1678;DHT22;6034;46.864;15.216;2023-07-31T14:17:09;24.90;99.90
1678;DHT22;6034;46.864;15.216;2023-07-31T14:19:37;25.10;99.90
1678;DHT22;6034;46.864;15.216;2023-07-31T14:22:04;25.30;99.90
1678;DHT22;6034;46.864;15.216;2023-07-31T14:24:32;25.30;99.90
1678;DHT22;6034;46.864;15.216;2023-07-31T14:27:00;25.30;99.90
1678;DHT22;6034;46.864;15.216;2023-07-31T14:29:27;25.30;99.90
1678;DHT22;6034;46.864;15.216;2023-07-31T14:31:54;25.10;99.90
1678;DHT22;6034;46.864;15.216;2023-07-31T14:34:23;25.20;99.90
1678;DHT22;6034;46.864;15.216;2023-07-31T14:36:50;24.90;99.90
1678;DHT22;6034;46.864;15.216;2023-07-31T14:39:17;25.10;99.90
1678;DHT22;6034;46.864;15.216;2023-07-31T14:41:44;25.10;99.90
1678;DHT22;6034;46.864;15.216;2023-07-31T14:44:12;25.00;99.90
1678;DHT22;6034;46.864;15.216;2023-07-31T14:46:39;24.90;99.90
1678;DHT22;6034;46.864;15.216;2023-07-31T14:49:06;24.60;99.90
1678;DHT22;6034;46.864;15.216;2023-07-31T14:51:35;24.70;99.90
1678;DHT22;6034;46.864;15.216;2023-07-31T14:54:02;24.80;99.90
1678;DHT22;6034;46.864;15.216;2023-07-31T14:56:29;24.90;99.90
1678;DHT22;6034;46.864;15.216;2023-07-31T14:58:57;24.80;99.90
1678;DHT22;6034;46.864;15.216;2023-07-31T15:01:24;24.70;99.90
1678;DHT22;6034;46.864;15.216;2023-07-31T15:03:52;24.70;99.90
1678;DHT22;6034;46.864;15.216;2023-07-31T15:06:19;24.60;99.90
1678;DHT22;6034;46.864;15.216;2023-07-31T15:08:48;24.70;99.90
1678;DHT22;6034;46.864;15.216;2023-07-31T15:11:15;24.40;99.90
1678;DHT22;6034;46.864;15.216;2023-07-31T15:13:44;24.40;99.90
1678;DHT22;6034;46.864;15.216;2023-07-31T15:16:11;24.50;99.90
1678;DHT22;6034;46.864;15.216;2023-07-31T15:18:38;24.60;99.90
1678;DHT22;6034;46.864;15.216;2023-07-31T15:21:06;24.60;99.90
1678;DHT22;6034;46.864;15.216;2023-07-31T15:23:35;24.70;99.90
1678;DHT22;6034;46.864;15.216;2023-07-31T15:26:05;24.50;99.90
1678;DHT22;6034;46.864;15.216;2023-07-31T15:28:33;24.50;99.90
1678;DHT22;6034;46.864;15.216;2023-07-31T15:31:03;24.60;99.90
1678;DHT22;6034;46.864;15.216;2023-07-31T15:33:30;24.50;99.90
1678;DHT22;6034;46.864;15.216;2023-07-31T15:35:57;24.50;99.90
1678;DHT22;6034;46.864;15.216;2023-07-31T15:38:24;24.50;99.90
1678;DHT22;6034;46.864;15.216;2023-07-31T15:40:52;24.50;99.90
1678;DHT22;6034;46.864;15.216;2023-07-31T15:43:21;24.50;99.90
1678;DHT22;6034;46.864;15.216;2023-07-31T15:45:48;24.50;99.90
1678;DHT22;6034;46.864;15.216;2023-07-31T15:48:16;24.20;99.90
1678;DHT22;6034;46.864;15.216;2023-07-31T15:50:43;24.10;99.90
1678;DHT22;6034;46.864;15.216;2023-07-31T15:53:10;24.00;99.90
1678;DHT22;6034;46.864;15.216;2023-07-31T15:55:37;24.20;99.90
1678;DHT22;6034;46.864;15.216;2023-07-31T15:58:05;24.10;99.90
1678;DHT22;6034;46.864;15.216;2023-07-31T16:00:34;24.00;99.90
1678;DHT22;6034;46.864;15.216;2023-07-31T16:03:01;24.10;99.90
1678;DHT22;6034;46.864;15.216;2023-07-31T16:05:28;24.00;99.90
1678;DHT22;6034;46.864;15.216;2023-07-31T16:07:55;24.00;99.90
1678;DHT22;6034;46.864;15.216;2023-07-31T16:10:23;24.00;99.90
1678;DHT22;6034;46.864;15.216;2023-07-31T16:12:50;24.00;99.90
1678;DHT22;6034;46.864;15.216;2023-07-31T16:15:17;24.10;99.90
1678;DHT22;6034;46.864;15.216;2023-07-31T16:17:46;24.10;99.90
1678;DHT22;6034;46.864;15.216;2023-07-31T16:20:14;24.00;99.90
1678;DHT22;6034;46.864;15.216;2023-07-31T16:22:41;24.00;99.90
1678;DHT22;6034;46.864;15.216;2023-07-31T16:25:09;24.10;99.90
1678;DHT22;6034;46.864;15.216;2023-07-31T16:27:37;24.10;99.90
1678;DHT22;6034;46.864;15.216;2023-07-31T16:30:05;24.10;99.90
1678;DHT22;6034;46.864;15.216;2023-07-31T16:32:33;24.10;99.90
1678;DHT22;6034;46.864;15.216;2023-07-31T16:35:02;24.10;99.90
1678;DHT22;6034;46.864;15.216;2023-07-31T16:37:29;24.10;99.90
1678;DHT22;6034;46.864;15.216;2023-07-31T16:39:56;24.10;99.90
1678;DHT22;6034;46.864;15.216;2023-07-31T16:42:24;24.10;99.90
1678;DHT22;6034;46.864;15.216;2023-07-31T16:44:51;24.10;99.90
1678;DHT22;6034;46.864;15.216;2023-07-31T16:47:18;24.10;99.90
1678;DHT22;6034;46.864;15.216;2023-07-31T16:49:45;24.00;99.90
1678;DHT22;6034;46.864;15.216;2023-07-31T16:52:14;24.00;99.90
1678;DHT22;6034;46.864;15.216;2023-07-31T16:54:41;24.00;99.90
1678;DHT22;6034;46.864;15.216;2023-07-31T16:57:08;24.00;99.90
1678;DHT22;6034;46.864;15.216;2023-07-31T16:59:36;24.10;99.90
1678;DHT22;6034;46.864;15.216;2023-07-31T17:02:04;24.10;99.90
1678;DHT22;6034;46.864;15.216;2023-07-31T17:04:31;24.10;99.90
1678;DHT22;6034;46.864;15.216;2023-07-31T17:06:58;24.10;99.90
1678;DHT22;6034;46.864;15.216;2023-07-31T17:09:27;24.10;99.90
1678;DHT22;6034;46.864;15.216;2023-07-31T17:11:55;24.10;99.90
1678;DHT22;6034;46.864;15.216;2023-07-31T17:14:22;24.10;99.90
1678;DHT22;6034;46.864;15.216;2023-07-31T17:16:50;24.00;99.90
1678;DHT22;6034;46.864;15.216;2023-07-31T17:19:17;23.90;99.90
1678;DHT22;6034;46.864;15.216;2023-07-31T17:21:44;23.90;99.90
1678;DHT22;6034;46.864;15.216;2023-07-31T17:24:11;24.00;99.90
1678;DHT22;6034;46.864;15.216;2023-07-31T17:26:40;23.90;99.90
1678;DHT22;6034;46.864;15.216;2023-07-31T17:29:13;23.90;99.90
1678;DHT22;6034;46.864;15.216;2023-07-31T17:31:43;23.80;99.90
1678;DHT22;6034;46.864;15.216;2023-07-31T17:34:11;23.80;99.90
1678;DHT22;6034;46.864;15.216;2023-07-31T17:36:39;23.80;99.90
1678;DHT22;6034;46.864;15.216;2023-07-31T17:39:08;23.70;99.90
1678;DHT22;6034;46.864;15.216;2023-07-31T17:41:35;23.60;99.90
1678;DHT22;6034;46.864;15.216;2023-07-31T17:44:06;23.60;99.90
1678;DHT22;6034;46.864;15.216;2023-07-31T17:46:33;23.60;99.90
1678;DHT22;6034;46.864;15.216;2023-07-31T17:49:02;23.60;99.90
1678;DHT22;6034;46.864;15.216;2023-07-31T17:51:32;23.50;99.90
1678;DHT22;6034;46.864;15.216;2023-07-31T17:54:02;23.50;99.90
1678;DHT22;6034;46.864;15.216;2023-07-31T17:56:31;23.40;99.90
1678;DHT22;6034;46.864;15.216;2023-07-31T17:59:05;23.40;99.90
1678;DHT22;6034;46.864;15.216;2023-07-31T18:01:33;23.30;99.90
1678;DHT22;6034;46.864;15.216;2023-07-31T18:04:02;23.30;99.90
1678;DHT22;6034;46.864;15.216;2023-07-31T18:06:31;23.30;99.90
1678;DHT22;6034;46.864;15.216;2023-07-31T18:09:00;23.30;99.90
1678;DHT22;6034;46.864;15.216;2023-07-31T18:11:29;23.20;99.90
1678;DHT22;6034;46.864;15.216;2023-07-31T18:13:58;23.20;99.90
1678;DHT22;6034;46.864;15.216;2023-07-31T18:16:28;23.10;99.90
1678;DHT22;6034;46.864;15.216;2023-07-31T18:18:56;23.10;99.90
1678;DHT22;6034;46.864;15.216;2023-07-31T18:21:25;23.10;99.90
1678;DHT22;6034;46.864;15.216;2023-07-31T18:24:00;23.00;99.90
1678;DHT22;6034;46.864;15.216;2023-07-31T18:26:30;23.00;99.90
1678;DHT22;6034;46.864;15.216;2023-07-31T18:28:59;22.90;99.90
1678;DHT22;6034;46.864;15.216;2023-07-31T18:31:29;22.90;99.90
1678;DHT22;6034;46.864;15.216;2023-07-31T18:33:58;22.90;99.90
1678;DHT22;6034;46.864;15.216;2023-07-31T18:36:26;22.80;99.90
1678;DHT22;6034;46.864;15.216;2023-07-31T18:38:54;22.80;99.90
1678;DHT22;6034;46.864;15.216;2023-07-31T18:41:22;22.70;99.90
1678;DHT22;6034;46.864;15.216;2023-07-31T18:43:50;22.80;99.90
1678;DHT22;6034;46.864;15.216;2023-07-31T18:46:18;22.70;99.90
1678;DHT22;6034;46.864;15.216;2023-07-31T18:48:48;22.70;99.90
1678;DHT22;6034;46.864;15.216;2023-07-31T18:51:16;22.60;99.90
1678;DHT22;6034;46.864;15.216;2023-07-31T18:53:45;22.70;99.90
1678;DHT22;6034;46.864;15.216;2023-07-31T18:56:13;22.60;99.90
1678;DHT22;6034;46.864;15.216;2023-07-31T18:58:41;22.70;99.90
1678;DHT22;6034;46.864;15.216;2023-07-31T19:01:09;22.70;99.90
1678;DHT22;6034;46.864;15.216;2023-07-31T19:03:37;22.70;99.90
1678;DHT22;6034;46.864;15.216;2023-07-31T19:06:08;22.70;99.90
1678;DHT22;6034;46.864;15.216;2023-07-31T19:08:36;22.70;99.90
1678;DHT22;6034;46.864;15.216;2023-07-31T19:11:04;22.70;99.90
1678;DHT22;6034;46.864;15.216;2023-07-31T19:13:32;22.60;99.90
1678;DHT22;6034;46.864;15.216;2023-07-31T19:16:01;22.50;99.90
1678;DHT22;6034;46.864;15.216;2023-07-31T19:18:32;22.40;99.90
1678;DHT22;6034;46.864;15.216;2023-07-31T19:21:00;22.30;99.90
1678;DHT22;6034;46.864;15.216;2023-07-31T19:23:31;22.30;99.90
1678;DHT22;6034;46.864;15.216;2023-07-31T19:25:58;22.30;99.90
1678;DHT22;6034;46.864;15.216;2023-07-31T19:28:26;22.30;99.90
1678;DHT22;6034;46.864;15.216;2023-07-31T19:30:54;22.30;99.90
1678;DHT22;6034;46.864;15.216;2023-07-31T19:33:23;22.40;99.90
1678;DHT22;6034;46.864;15.216;2023-07-31T19:35:54;22.40;99.90
1678;DHT22;6034;46.864;15.216;2023-07-31T19:38:22;22.40;99.90
1678;DHT22;6034;46.864;15.216;2023-07-31T19:40:52;22.30;99.90
1678;DHT22;6034;46.864;15.216;2023-07-31T19:43:21;22.30;99.90
1678;DHT22;6034;46.864;15.216;2023-07-31T19:45:48;22.40;99.90
1678;DHT22;6034;46.864;15.216;2023-07-31T19:48:17;22.30;99.90
1678;DHT22;6034;46.864;15.216;2023-07-31T19:50:48;22.30;99.90
1678;DHT22;6034;46.864;15.216;2023-07-31T19:53:17;22.20;99.90
1678;DHT22;6034;46.864;15.216;2023-07-31T19:55:45;22.10;99.90
1678;DHT22;6034;46.864;15.216;2023-07-31T19:58:15;22.00;99.90
1678;DHT22;6034;46.864;15.216;2023-07-31T20:00:42;21.90;99.90
1678;DHT22;6034;46.864;15.216;2023-07-31T20:03:13;22.00;99.90
1678;DHT22;6034;46.864;15.216;2023-07-31T20:05:42;22.10;99.90
1678;DHT22;6034;46.864;15.216;2023-07-31T20:08:10;22.10;99.90
1678;DHT22;6034;46.864;15.216;2023-07-31T20:10:38;22.00;99.90
1678;DHT22;6034;46.864;15.216;2023-07-31T20:13:05;22.10;99.90
1678;DHT22;6034;46.864;15.216;2023-07-31T20:15:35;22.10;99.90
1678;DHT22;6034;46.864;15.216;2023-07-31T20:18:03;22.10;99.90
1678;DHT22;6034;46.864;15.216;2023-07-31T20:20:31;22.10;99.90
1678;DHT22;6034;46.864;15.216;2023-07-31T20:22:59;22.00;99.90
1678;DHT22;6034;46.864;15.216;2023-07-31T20:25:27;22.00;99.90
1678;DHT22;6034;46.864;15.216;2023-07-31T20:27:54;22.00;99.90
1678;DHT22;6034;46.864;15.216;2023-07-31T20:30:22;21.90;99.90